sensor_id;sensor_type;location;lat;lon;timestamp;P1;durP1;ratioP1;P2;durP2;ratioP2
6614;SDS011;3343;42.896;23.912;2022-07-29T02:01:50;12.73;;;10.43;;
6614;SDS011;3343;42.896;23.912;2022-07-29T02:04:20;10.30;;;9.30;;
6614;SDS011;3343;42.896;23.912;2022-07-29T02:06:49;11.48;;;9.55;;
6614;SDS011;3343;42.896;23.912;2022-07-29T02:09:19;12.38;;;10.50;;
6614;SDS011;3343;42.896;23.912;2022-07-29T02:11:49;11.55;;;9.73;;
6614;SDS011;3343;42.896;23.912;2022-07-29T02:14:20;13.88;;;9.30;;
6614;SDS011;3343;42.896;23.912;2022-07-29T02:16:53;16.33;;;9.82;;
6614;SDS011;3343;42.896;23.912;2022-07-29T02:19:23;9.93;;;8.88;;
6614;SDS011;3343;42.896;23.912;2022-07-29T02:21:53;11.48;;;9.35;;
6614;SDS011;3343;42.896;23.912;2022-07-29T02:24:22;10.57;;;8.45;;
6614;SDS011;3343;42.896;23.912;2022-07-29T02:26:51;8.90;;;7.80;;
6614;SDS011;3343;42.896;23.912;2022-07-29T02:29:22;9.30;;;8.27;;
6614;SDS011;3343;42.896;23.912;2022-07-29T02:31:51;9.10;;;8.10;;
6614;SDS011;3343;42.896;23.912;2022-07-29T02:34:21;10.48;;;8.43;;
6614;SDS011;3343;42.896;23.912;2022-07-29T02:36:49;13.02;;;8.50;;
6614;SDS011;3343;42.896;23.912;2022-07-29T02:39:18;13.18;;;8.65;;
6614;SDS011;3343;42.896;23.912;2022-07-29T02:41:48;9.35;;;8.00;;
6614;SDS011;3343;42.896;23.912;2022-07-29T02:44:17;11.25;;;9.00;;
6614;SDS011;3343;42.896;23.912;2022-07-29T02:46:48;11.63;;;9.00;;
6614;SDS011;3343;42.896;23.912;2022-07-29T02:49:18;9.40;;;8.20;;
6614;SDS011;3343;42.896;23.912;2022-07-29T02:51:58;10.77;;;8.88;;
6614;SDS011;3343;42.896;23.912;2022-07-29T02:54:29;11.03;;;8.73;;
6614;SDS011;3343;42.896;23.912;2022-07-29T02:57:01;11.63;;;9.20;;
6614;SDS011;3343;42.896;23.912;2022-07-29T02:59:33;9.82;;;8.82;;
6614;SDS011;3343;42.896;23.912;2022-07-29T03:02:04;12.27;;;8.60;;
6614;SDS011;3343;42.896;23.912;2022-07-29T03:04:35;9.63;;;8.63;;
6614;SDS011;3343;42.896;23.912;2022-07-29T03:07:06;12.55;;;8.88;;
6614;SDS011;3343;42.896;23.912;2022-07-29T03:09:34;8.95;;;7.97;;
6614;SDS011;3343;42.896;23.912;2022-07-29T03:12:03;14.82;;;8.40;;
6614;SDS011;3343;42.896;23.912;2022-07-29T03:14:31;10.38;;;8.35;;
6614;SDS011;3343;42.896;23.912;2022-07-29T03:16:58;10.77;;;7.65;;
6614;SDS011;3343;42.896;23.912;2022-07-29T03:19:26;10.68;;;8.15;;
6614;SDS011;3343;42.896;23.912;2022-07-29T03:21:56;12.65;;;8.88;;
6614;SDS011;3343;42.896;23.912;2022-07-29T03:24:24;10.02;;;8.13;;
6614;SDS011;3343;42.896;23.912;2022-07-29T03:26:53;12.07;;;8.95;;
6614;SDS011;3343;42.896;23.912;2022-07-29T03:29:21;9.68;;;8.30;;
6614;SDS011;3343;42.896;23.912;2022-07-29T03:31:48;10.50;;;8.88;;
6614;SDS011;3343;42.896;23.912;2022-07-29T03:34:15;8.38;;;7.47;;
6614;SDS011;3343;42.896;23.912;2022-07-29T03:36:42;10.27;;;7.82;;
6614;SDS011;3343;42.896;23.912;2022-07-29T03:39:10;9.15;;;8.25;;
6614;SDS011;3343;42.896;23.912;2022-07-29T03:41:43;9.55;;;7.68;;
6614;SDS011;3343;42.896;23.912;2022-07-29T03:44:12;10.07;;;7.35;;
6614;SDS011;3343;42.896;23.912;2022-07-29T03:46:41;9.10;;;7.90;;
6614;SDS011;3343;42.896;23.912;2022-07-29T03:49:10;11.98;;;7.85;;
6614;SDS011;3343;42.896;23.912;2022-07-29T03:51:38;9.48;;;7.80;;
6614;SDS011;3343;42.896;23.912;2022-07-29T03:54:05;10.10;;;7.28;;
6614;SDS011;3343;42.896;23.912;2022-07-29T03:56:34;9.63;;;7.05;;
6614;SDS011;3343;42.896;23.912;2022-07-29T03:59:06;7.80;;;7.00;;
6614;SDS011;3343;42.896;23.912;2022-07-29T04:01:34;10.98;;;7.43;;
6614;SDS011;3343;42.896;23.912;2022-07-29T04:04:02;10.30;;;6.88;;
6614;SDS011;3343;42.896;23.912;2022-07-29T04:06:36;7.70;;;6.60;;
6614;SDS011;3343;42.896;23.912;2022-07-29T04:09:04;9.18;;;6.80;;
6614;SDS011;3343;42.896;23.912;2022-07-29T04:11:32;9.35;;;7.57;;
6614;SDS011;3343;42.896;23.912;2022-07-29T04:14:01;8.75;;;6.13;;
6614;SDS011;3343;42.896;23.912;2022-07-29T04:16:27;10.85;;;7.00;;
6614;SDS011;3343;42.896;23.912;2022-07-29T04:18:54;10.88;;;6.85;;
6614;SDS011;3343;42.896;23.912;2022-07-29T04:21:21;9.52;;;7.80;;
6614;SDS011;3343;42.896;23.912;2022-07-29T04:23:48;11.85;;;8.93;;
6614;SDS011;3343;42.896;23.912;2022-07-29T04:26:15;13.55;;;8.60;;
6614;SDS011;3343;42.896;23.912;2022-07-29T04:28:44;10.45;;;9.10;;
6614;SDS011;3343;42.896;23.912;2022-07-29T04:31:12;10.82;;;8.50;;
6614;SDS011;3343;42.896;23.912;2022-07-29T04:33:39;9.50;;;8.20;;
6614;SDS011;3343;42.896;23.912;2022-07-29T04:36:06;13.27;;;9.48;;
6614;SDS011;3343;42.896;23.912;2022-07-29T04:38:33;10.98;;;8.90;;
6614;SDS011;3343;42.896;23.912;2022-07-29T04:41:00;12.10;;;9.30;;
6614;SDS011;3343;42.896;23.912;2022-07-29T04:43:26;11.52;;;10.10;;
6614;SDS011;3343;42.896;23.912;2022-07-29T04:45:55;11.50;;;9.27;;
6614;SDS011;3343;42.896;23.912;2022-07-29T04:48:21;15.15;;;10.85;;
6614;SDS011;3343;42.896;23.912;2022-07-29T04:50:48;12.65;;;9.52;;
6614;SDS011;3343;42.896;23.912;2022-07-29T04:53:15;13.55;;;10.45;;
6614;SDS011;3343;42.896;23.912;2022-07-29T04:55:42;14.05;;;10.13;;
6614;SDS011;3343;42.896;23.912;2022-07-29T04:58:10;14.43;;;10.68;;
6614;SDS011;3343;42.896;23.912;2022-07-29T05:00:36;12.40;;;9.05;;
6614;SDS011;3343;42.896;23.912;2022-07-29T05:03:05;16.02;;;9.23;;
6614;SDS011;3343;42.896;23.912;2022-07-29T05:05:32;11.68;;;9.38;;
6614;SDS011;3343;42.896;23.912;2022-07-29T05:07:58;10.75;;;9.43;;
6614;SDS011;3343;42.896;23.912;2022-07-29T05:10:25;13.25;;;10.13;;
6614;SDS011;3343;42.896;23.912;2022-07-29T05:12:53;12.55;;;11.00;;
6614;SDS011;3343;42.896;23.912;2022-07-29T05:15:20;15.60;;;10.30;;
6614;SDS011;3343;42.896;23.912;2022-07-29T05:17:46;11.38;;;9.20;;
6614;SDS011;3343;42.896;23.912;2022-07-29T05:20:15;16.83;;;10.27;;
6614;SDS011;3343;42.896;23.912;2022-07-29T05:22:43;12.32;;;9.77;;
6614;SDS011;3343;42.896;23.912;2022-07-29T05:25:10;13.57;;;10.13;;
6614;SDS011;3343;42.896;23.912;2022-07-29T05:27:37;13.88;;;10.10;;
6614;SDS011;3343;42.896;23.912;2022-07-29T05:30:04;14.13;;;10.13;;
6614;SDS011;3343;42.896;23.912;2022-07-29T05:32:32;12.75;;;9.93;;
6614;SDS011;3343;42.896;23.912;2022-07-29T05:34:59;16.90;;;9.77;;
6614;SDS011;3343;42.896;23.912;2022-07-29T05:37:27;13.45;;;9.75;;
6614;SDS011;3343;42.896;23.912;2022-07-29T05:39:54;12.30;;;10.23;;
6614;SDS011;3343;42.896;23.912;2022-07-29T05:42:21;16.02;;;10.88;;
6614;SDS011;3343;42.896;23.912;2022-07-29T05:44:48;14.68;;;11.13;;
6614;SDS011;3343;42.896;23.912;2022-07-29T05:47:14;15.00;;;10.18;;
6614;SDS011;3343;42.896;23.912;2022-07-29T05:49:41;13.93;;;10.32;;
6614;SDS011;3343;42.896;23.912;2022-07-29T05:52:08;12.60;;;10.07;;
6614;SDS011;3343;42.896;23.912;2022-07-29T05:54:37;20.10;;;10.32;;
6614;SDS011;3343;42.896;23.912;2022-07-29T05:57:04;12.85;;;10.30;;
6614;SDS011;3343;42.896;23.912;2022-07-29T05:59:30;12.07;;;10.25;;
6614;SDS011;3343;42.896;23.912;2022-07-29T06:01:57;12.65;;;9.70;;
6614;SDS011;3343;42.896;23.912;2022-07-29T06:04:24;18.17;;;11.75;;
6614;SDS011;3343;42.896;23.912;2022-07-29T06:06:51;21.63;;;15.52;;
6614;SDS011;3343;42.896;23.912;2022-07-29T06:09:18;17.92;;;11.25;;
6614;SDS011;3343;42.896;23.912;2022-07-29T06:11:46;11.60;;;9.75;;
6614;SDS011;3343;42.896;23.912;2022-07-29T06:14:13;12.30;;;9.98;;
6614;SDS011;3343;42.896;23.912;2022-07-29T06:16:40;15.85;;;9.88;;
6614;SDS011;3343;42.896;23.912;2022-07-29T06:19:07;14.98;;;10.25;;
6614;SDS011;3343;42.896;23.912;2022-07-29T06:21:34;11.18;;;9.70;;
6614;SDS011;3343;42.896;23.912;2022-07-29T06:24:01;11.40;;;9.55;;
6614;SDS011;3343;42.896;23.912;2022-07-29T06:26:28;12.32;;;9.32;;
6614;SDS011;3343;42.896;23.912;2022-07-29T06:28:56;13.00;;;9.07;;
6614;SDS011;3343;42.896;23.912;2022-07-29T06:31:23;10.48;;;8.70;;
6614;SDS011;3343;42.896;23.912;2022-07-29T06:33:50;8.43;;;7.53;;
6614;SDS011;3343;42.896;23.912;2022-07-29T06:36:18;11.45;;;8.35;;
6614;SDS011;3343;42.896;23.912;2022-07-29T06:38:44;9.90;;;7.13;;
6614;SDS011;3343;42.896;23.912;2022-07-29T06:41:11;10.30;;;7.00;;
6614;SDS011;3343;42.896;23.912;2022-07-29T06:43:41;15.00;;;7.50;;
6614;SDS011;3343;42.896;23.912;2022-07-29T06:46:12;10.27;;;7.68;;
6614;SDS011;3343;42.896;23.912;2022-07-29T06:48:40;8.57;;;6.78;;
6614;SDS011;3343;42.896;23.912;2022-07-29T06:51:08;10.43;;;7.88;;
6614;SDS011;3343;42.896;23.912;2022-07-29T06:53:36;8.93;;;7.50;;
6614;SDS011;3343;42.896;23.912;2022-07-29T06:56:04;9.18;;;7.85;;
6614;SDS011;3343;42.896;23.912;2022-07-29T06:58:33;13.00;;;7.50;;
6614;SDS011;3343;42.896;23.912;2022-07-29T07:01:02;12.93;;;7.65;;
6614;SDS011;3343;42.896;23.912;2022-07-29T07:03:31;12.40;;;7.05;;
6614;SDS011;3343;42.896;23.912;2022-07-29T07:05:59;10.82;;;7.60;;
6614;SDS011;3343;42.896;23.912;2022-07-29T07:08:26;7.75;;;6.95;;
6614;SDS011;3343;42.896;23.912;2022-07-29T07:10:53;11.98;;;7.25;;
6614;SDS011;3343;42.896;23.912;2022-07-29T07:13:20;9.90;;;7.38;;
6614;SDS011;3343;42.896;23.912;2022-07-29T07:15:47;7.57;;;6.82;;
6614;SDS011;3343;42.896;23.912;2022-07-29T07:18:16;12.02;;;6.93;;
6614;SDS011;3343;42.896;23.912;2022-07-29T07:20:44;7.82;;;6.80;;
6614;SDS011;3343;42.896;23.912;2022-07-29T07:23:11;10.27;;;7.43;;
6614;SDS011;3343;42.896;23.912;2022-07-29T07:25:38;10.50;;;8.02;;
6614;SDS011;3343;42.896;23.912;2022-07-29T07:28:05;9.95;;;8.32;;
6614;SDS011;3343;42.896;23.912;2022-07-29T07:30:32;9.30;;;7.93;;
6614;SDS011;3343;42.896;23.912;2022-07-29T07:32:59;10.68;;;8.10;;
6614;SDS011;3343;42.896;23.912;2022-07-29T07:35:26;8.27;;;7.15;;
6614;SDS011;3343;42.896;23.912;2022-07-29T07:37:55;8.52;;;7.68;;
6614;SDS011;3343;42.896;23.912;2022-07-29T07:40:22;10.13;;;7.18;;
6614;SDS011;3343;42.896;23.912;2022-07-29T07:42:49;12.63;;;7.50;;
6614;SDS011;3343;42.896;23.912;2022-07-29T07:45:16;7.80;;;7.00;;
6614;SDS011;3343;42.896;23.912;2022-07-29T07:47:43;11.30;;;7.75;;
6614;SDS011;3343;42.896;23.912;2022-07-29T07:50:10;9.35;;;7.10;;
6614;SDS011;3343;42.896;23.912;2022-07-29T07:52:45;9.48;;;7.22;;
6614;SDS011;3343;42.896;23.912;2022-07-29T07:55:14;10.57;;;6.97;;
6614;SDS011;3343;42.896;23.912;2022-07-29T07:57:42;9.07;;;7.55;;
6614;SDS011;3343;42.896;23.912;2022-07-29T08:00:09;8.93;;;7.20;;
6614;SDS011;3343;42.896;23.912;2022-07-29T08:02:37;8.70;;;7.38;;
6614;SDS011;3343;42.896;23.912;2022-07-29T08:05:05;8.80;;;7.10;;
6614;SDS011;3343;42.896;23.912;2022-07-29T08:07:33;8.88;;;7.20;;
6614;SDS011;3343;42.896;23.912;2022-07-29T08:10:01;8.60;;;7.03;;
6614;SDS011;3343;42.896;23.912;2022-07-29T08:12:30;8.82;;;7.60;;
6614;SDS011;3343;42.896;23.912;2022-07-29T08:14:57;14.35;;;7.43;;
6614;SDS011;3343;42.896;23.912;2022-07-29T08:17:24;9.52;;;7.35;;
6614;SDS011;3343;42.896;23.912;2022-07-29T08:19:51;8.10;;;6.97;;
6614;SDS011;3343;42.896;23.912;2022-07-29T08:22:18;7.85;;;6.97;;
6614;SDS011;3343;42.896;23.912;2022-07-29T08:24:45;10.20;;;7.55;;
6614;SDS011;3343;42.896;23.912;2022-07-29T08:27:17;11.00;;;7.47;;
6614;SDS011;3343;42.896;23.912;2022-07-29T08:29:46;9.85;;;7.40;;
6614;SDS011;3343;42.896;23.912;2022-07-29T08:32:13;9.40;;;6.88;;
6614;SDS011;3343;42.896;23.912;2022-07-29T08:34:40;9.27;;;7.60;;
6614;SDS011;3343;42.896;23.912;2022-07-29T08:37:08;7.88;;;7.07;;
6614;SDS011;3343;42.896;23.912;2022-07-29T08:39:35;12.60;;;7.55;;
6614;SDS011;3343;42.896;23.912;2022-07-29T08:42:02;9.85;;;7.57;;
6614;SDS011;3343;42.896;23.912;2022-07-29T08:44:29;10.80;;;7.47;;
6614;SDS011;3343;42.896;23.912;2022-07-29T08:46:59;8.05;;;6.95;;
6614;SDS011;3343;42.896;23.912;2022-07-29T08:49:26;8.02;;;7.22;;
6614;SDS011;3343;42.896;23.912;2022-07-29T08:51:53;7.65;;;6.75;;
6614;SDS011;3343;42.896;23.912;2022-07-29T08:54:21;13.73;;;6.93;;
6614;SDS011;3343;42.896;23.912;2022-07-29T08:56:49;8.77;;;6.25;;
6614;SDS011;3343;42.896;23.912;2022-07-29T09:01:47;8.18;;;6.80;;
6614;SDS011;3343;42.896;23.912;2022-07-29T09:04:16;9.75;;;6.65;;
6614;SDS011;3343;42.896;23.912;2022-07-29T09:06:46;11.10;;;7.25;;
6614;SDS011;3343;42.896;23.912;2022-07-29T09:09:16;13.25;;;6.57;;
6614;SDS011;3343;42.896;23.912;2022-07-29T09:11:45;10.10;;;6.75;;
6614;SDS011;3343;42.896;23.912;2022-07-29T09:14:14;8.30;;;6.70;;
6614;SDS011;3343;42.896;23.912;2022-07-29T09:16:45;9.85;;;7.18;;
6614;SDS011;3343;42.896;23.912;2022-07-29T09:19:22;7.57;;;6.88;;
6614;SDS011;3343;42.896;23.912;2022-07-29T09:21:50;11.88;;;7.10;;
6614;SDS011;3343;42.896;23.912;2022-07-29T09:24:26;7.93;;;6.38;;
6614;SDS011;3343;42.896;23.912;2022-07-29T09:27:17;7.38;;;6.45;;
6614;SDS011;3343;42.896;23.912;2022-07-29T09:29:55;8.55;;;7.07;;
6614;SDS011;3343;42.896;23.912;2022-07-29T09:32:24;6.78;;;6.13;;
6614;SDS011;3343;42.896;23.912;2022-07-29T09:37:45;7.95;;;7.15;;
6614;SDS011;3343;42.896;23.912;2022-07-29T09:40:14;8.23;;;6.78;;
6614;SDS011;3343;42.896;23.912;2022-07-29T09:42:43;10.18;;;7.10;;
6614;SDS011;3343;42.896;23.912;2022-07-29T09:45:11;9.75;;;7.00;;
6614;SDS011;3343;42.896;23.912;2022-07-29T09:47:43;8.27;;;6.78;;
6614;SDS011;3343;42.896;23.912;2022-07-29T09:50:12;8.00;;;6.45;;
6614;SDS011;3343;42.896;23.912;2022-07-29T09:52:48;7.65;;;6.95;;
6614;SDS011;3343;42.896;23.912;2022-07-29T09:55:17;7.20;;;6.45;;
6614;SDS011;3343;42.896;23.912;2022-07-29T09:57:45;7.15;;;6.45;;
6614;SDS011;3343;42.896;23.912;2022-07-29T10:00:13;7.15;;;6.35;;
6614;SDS011;3343;42.896;23.912;2022-07-29T10:02:44;7.85;;;6.82;;
6614;SDS011;3343;42.896;23.912;2022-07-29T10:05:16;10.73;;;7.10;;
6614;SDS011;3343;42.896;23.912;2022-07-29T10:07:47;9.20;;;6.85;;
6614;SDS011;3343;42.896;23.912;2022-07-29T10:10:18;11.52;;;6.65;;
6614;SDS011;3343;42.896;23.912;2022-07-29T10:12:51;7.88;;;6.85;;
6614;SDS011;3343;42.896;23.912;2022-07-29T10:15:20;8.43;;;6.78;;
6614;SDS011;3343;42.896;23.912;2022-07-29T10:17:48;8.50;;;6.88;;
6614;SDS011;3343;42.896;23.912;2022-07-29T10:20:16;10.68;;;7.50;;
6614;SDS011;3343;42.896;23.912;2022-07-29T10:22:44;8.13;;;7.00;;
6614;SDS011;3343;42.896;23.912;2022-07-29T10:25:13;7.70;;;6.93;;
6614;SDS011;3343;42.896;23.912;2022-07-29T10:27:41;11.23;;;7.55;;
6614;SDS011;3343;42.896;23.912;2022-07-29T10:30:09;7.10;;;6.40;;
6614;SDS011;3343;42.896;23.912;2022-07-29T10:32:40;9.52;;;6.95;;
6614;SDS011;3343;42.896;23.912;2022-07-29T10:41:22;8.95;;;7.20;;
6614;SDS011;3343;42.896;23.912;2022-07-29T10:44:09;8.30;;;7.50;;
6614;SDS011;3343;42.896;23.912;2022-07-29T10:46:41;10.10;;;7.30;;
6614;SDS011;3343;42.896;23.912;2022-07-29T10:49:09;8.13;;;7.15;;
6614;SDS011;3343;42.896;23.912;2022-07-29T10:51:53;9.50;;;6.80;;
6614;SDS011;3343;42.896;23.912;2022-07-29T10:57:15;10.10;;;6.78;;
6614;SDS011;3343;42.896;23.912;2022-07-29T10:59:44;10.13;;;6.75;;
6614;SDS011;3343;42.896;23.912;2022-07-29T11:05:09;9.45;;;6.90;;
6614;SDS011;3343;42.896;23.912;2022-07-29T11:07:38;8.77;;;6.82;;
6614;SDS011;3343;42.896;23.912;2022-07-29T11:10:19;11.25;;;6.60;;
6614;SDS011;3343;42.896;23.912;2022-07-29T11:12:49;10.02;;;6.70;;
6614;SDS011;3343;42.896;23.912;2022-07-29T11:15:18;9.60;;;6.80;;
6614;SDS011;3343;42.896;23.912;2022-07-29T11:20:41;8.25;;;6.40;;
6614;SDS011;3343;42.896;23.912;2022-07-29T11:23:19;11.35;;;6.70;;
6614;SDS011;3343;42.896;23.912;2022-07-29T11:28:57;9.07;;;6.63;;
6614;SDS011;3343;42.896;23.912;2022-07-29T11:31:33;7.30;;;6.57;;
6614;SDS011;3343;42.896;23.912;2022-07-29T11:34:17;7.60;;;6.35;;
6614;SDS011;3343;42.896;23.912;2022-07-29T11:39:41;6.80;;;6.20;;
6614;SDS011;3343;42.896;23.912;2022-07-29T11:45:09;7.68;;;6.05;;
6614;SDS011;3343;42.896;23.912;2022-07-29T11:47:39;8.98;;;7.03;;
6614;SDS011;3343;42.896;23.912;2022-07-29T11:50:08;7.78;;;6.43;;
6614;SDS011;3343;42.896;23.912;2022-07-29T11:52:36;9.77;;;6.00;;
6614;SDS011;3343;42.896;23.912;2022-07-29T11:55:08;6.80;;;6.05;;
6614;SDS011;3343;42.896;23.912;2022-07-29T11:57:37;7.80;;;6.65;;
6614;SDS011;3343;42.896;23.912;2022-07-29T12:00:19;10.27;;;6.85;;
6614;SDS011;3343;42.896;23.912;2022-07-29T12:02:48;8.57;;;6.35;;
6614;SDS011;3343;42.896;23.912;2022-07-29T12:05:15;7.15;;;6.18;;
6614;SDS011;3343;42.896;23.912;2022-07-29T12:07:42;11.63;;;6.68;;
6614;SDS011;3343;42.896;23.912;2022-07-29T12:10:09;8.18;;;6.95;;
6614;SDS011;3343;42.896;23.912;2022-07-29T12:12:36;7.00;;;6.30;;
6614;SDS011;3343;42.896;23.912;2022-07-29T12:15:15;7.90;;;7.20;;
6614;SDS011;3343;42.896;23.912;2022-07-29T12:17:46;7.43;;;6.72;;
6614;SDS011;3343;42.896;23.912;2022-07-29T12:20:14;7.00;;;5.68;;
6614;SDS011;3343;42.896;23.912;2022-07-29T12:22:50;11.50;;;6.95;;
6614;SDS011;3343;42.896;23.912;2022-07-29T12:25:19;7.78;;;6.95;;
6614;SDS011;3343;42.896;23.912;2022-07-29T12:27:47;9.43;;;6.25;;
6614;SDS011;3343;42.896;23.912;2022-07-29T12:30:34;7.53;;;6.60;;
6614;SDS011;3343;42.896;23.912;2022-07-29T12:33:09;8.85;;;6.57;;
6614;SDS011;3343;42.896;23.912;2022-07-29T12:35:37;8.27;;;7.43;;
6614;SDS011;3343;42.896;23.912;2022-07-29T12:38:05;11.25;;;7.13;;
6614;SDS011;3343;42.896;23.912;2022-07-29T12:40:32;9.52;;;6.97;;
6614;SDS011;3343;42.896;23.912;2022-07-29T12:43:06;10.80;;;7.78;;
6614;SDS011;3343;42.896;23.912;2022-07-29T12:45:40;7.75;;;6.20;;
6614;SDS011;3343;42.896;23.912;2022-07-29T12:48:09;10.27;;;6.88;;
6614;SDS011;3343;42.896;23.912;2022-07-29T12:50:36;11.00;;;7.15;;
6614;SDS011;3343;42.896;23.912;2022-07-29T12:53:17;7.40;;;6.70;;
6614;SDS011;3343;42.896;23.912;2022-07-29T12:55:45;10.00;;;7.15;;
6614;SDS011;3343;42.896;23.912;2022-07-29T12:58:14;7.03;;;6.32;;
6614;SDS011;3343;42.896;23.912;2022-07-29T13:01:02;8.00;;;7.20;;
6614;SDS011;3343;42.896;23.912;2022-07-29T13:03:41;8.90;;;7.53;;
6614;SDS011;3343;42.896;23.912;2022-07-29T13:06:28;11.40;;;8.13;;
6614;SDS011;3343;42.896;23.912;2022-07-29T13:09:03;8.98;;;6.25;;
6614;SDS011;3343;42.896;23.912;2022-07-29T13:11:33;9.10;;;7.07;;
6614;SDS011;3343;42.896;23.912;2022-07-29T13:14:01;8.00;;;6.15;;
6614;SDS011;3343;42.896;23.912;2022-07-29T13:16:29;6.63;;;6.03;;
6614;SDS011;3343;42.896;23.912;2022-07-29T13:19:06;9.82;;;7.38;;
6614;SDS011;3343;42.896;23.912;2022-07-29T13:21:34;7.53;;;6.75;;
6614;SDS011;3343;42.896;23.912;2022-07-29T13:24:02;8.18;;;7.32;;
6614;SDS011;3343;42.896;23.912;2022-07-29T13:26:29;10.27;;;7.80;;
6614;SDS011;3343;42.896;23.912;2022-07-29T13:28:56;10.93;;;7.47;;
6614;SDS011;3343;42.896;23.912;2022-07-29T13:31:23;7.85;;;7.05;;
6614;SDS011;3343;42.896;23.912;2022-07-29T13:33:52;12.05;;;7.07;;
6614;SDS011;3343;42.896;23.912;2022-07-29T13:36:19;9.27;;;5.63;;
6614;SDS011;3343;42.896;23.912;2022-07-29T13:38:45;9.32;;;5.57;;
6614;SDS011;3343;42.896;23.912;2022-07-29T13:41:12;18.42;;;5.22;;
6614;SDS011;3343;42.896;23.912;2022-07-29T13:43:39;7.82;;;4.20;;
6614;SDS011;3343;42.896;23.912;2022-07-29T13:46:06;7.75;;;4.45;;
6614;SDS011;3343;42.896;23.912;2022-07-29T13:48:33;6.03;;;4.40;;
6614;SDS011;3343;42.896;23.912;2022-07-29T13:51:02;4.18;;;3.78;;
6614;SDS011;3343;42.896;23.912;2022-07-29T13:53:29;7.13;;;4.03;;
6614;SDS011;3343;42.896;23.912;2022-07-29T13:55:55;6.35;;;4.40;;
6614;SDS011;3343;42.896;23.912;2022-07-29T13:58:22;8.63;;;5.28;;
6614;SDS011;3343;42.896;23.912;2022-07-29T14:00:49;6.03;;;4.82;;
6614;SDS011;3343;42.896;23.912;2022-07-29T14:03:16;7.03;;;4.50;;
6614;SDS011;3343;42.896;23.912;2022-07-29T14:05:43;7.85;;;4.53;;
6614;SDS011;3343;42.896;23.912;2022-07-29T14:08:11;4.70;;;4.13;;
6614;SDS011;3343;42.896;23.912;2022-07-29T14:10:38;6.65;;;4.13;;
6614;SDS011;3343;42.896;23.912;2022-07-29T14:13:05;7.75;;;4.97;;
6614;SDS011;3343;42.896;23.912;2022-07-29T14:15:32;6.07;;;4.90;;
6614;SDS011;3343;42.896;23.912;2022-07-29T14:17:59;6.03;;;4.75;;
6614;SDS011;3343;42.896;23.912;2022-07-29T14:20:26;6.43;;;5.80;;
6614;SDS011;3343;42.896;23.912;2022-07-29T14:22:55;8.82;;;5.88;;
6614;SDS011;3343;42.896;23.912;2022-07-29T14:25:23;7.00;;;6.30;;
6614;SDS011;3343;42.896;23.912;2022-07-29T14:27:50;9.70;;;6.43;;
6614;SDS011;3343;42.896;23.912;2022-07-29T14:30:18;9.18;;;6.97;;
6614;SDS011;3343;42.896;23.912;2022-07-29T14:32:45;7.68;;;6.85;;
6614;SDS011;3343;42.896;23.912;2022-07-29T14:35:12;6.80;;;6.18;;
6614;SDS011;3343;42.896;23.912;2022-07-29T14:37:39;8.18;;;6.78;;
6614;SDS011;3343;42.896;23.912;2022-07-29T14:40:08;12.90;;;6.75;;
6614;SDS011;3343;42.896;23.912;2022-07-29T14:42:37;7.90;;;6.97;;
6614;SDS011;3343;42.896;23.912;2022-07-29T14:45:05;8.77;;;6.75;;
6614;SDS011;3343;42.896;23.912;2022-07-29T14:47:33;8.25;;;6.65;;
6614;SDS011;3343;42.896;23.912;2022-07-29T14:50:00;6.30;;;5.70;;
6614;SDS011;3343;42.896;23.912;2022-07-29T14:52:27;9.70;;;6.55;;
6614;SDS011;3343;42.896;23.912;2022-07-29T14:54:53;9.65;;;6.38;;
6614;SDS011;3343;42.896;23.912;2022-07-29T14:57:20;9.18;;;6.68;;
6614;SDS011;3343;42.896;23.912;2022-07-29T14:59:48;6.75;;;5.93;;
6614;SDS011;3343;42.896;23.912;2022-07-29T15:02:16;7.15;;;5.93;;
6614;SDS011;3343;42.896;23.912;2022-07-29T15:04:43;6.50;;;5.85;;
6614;SDS011;3343;42.896;23.912;2022-07-29T15:07:11;7.95;;;6.38;;
6614;SDS011;3343;42.896;23.912;2022-07-29T15:09:38;7.45;;;5.80;;
6614;SDS011;3343;42.896;23.912;2022-07-29T15:12:05;6.68;;;6.07;;
6614;SDS011;3343;42.896;23.912;2022-07-29T15:14:33;7.25;;;6.38;;
6614;SDS011;3343;42.896;23.912;2022-07-29T15:17:01;8.50;;;6.90;;
6614;SDS011;3343;42.896;23.912;2022-07-29T15:19:28;7.50;;;6.45;;
6614;SDS011;3343;42.896;23.912;2022-07-29T15:21:55;7.13;;;6.00;;
6614;SDS011;3343;42.896;23.912;2022-07-29T15:24:22;7.40;;;6.05;;
6614;SDS011;3343;42.896;23.912;2022-07-29T15:26:49;10.20;;;6.57;;
6614;SDS011;3343;42.896;23.912;2022-07-29T15:29:16;7.07;;;6.38;;
6614;SDS011;3343;42.896;23.912;2022-07-29T15:31:43;6.63;;;6.03;;
6614;SDS011;3343;42.896;23.912;2022-07-29T15:34:11;11.40;;;6.45;;
6614;SDS011;3343;42.896;23.912;2022-07-29T15:36:38;6.68;;;6.05;;
6614;SDS011;3343;42.896;23.912;2022-07-29T15:39:05;6.93;;;6.18;;
6614;SDS011;3343;42.896;23.912;2022-07-29T15:41:32;6.80;;;6.10;;
6614;SDS011;3343;42.896;23.912;2022-07-29T15:43:59;7.03;;;5.95;;
6614;SDS011;3343;42.896;23.912;2022-07-29T15:46:26;9.50;;;5.93;;
6614;SDS011;3343;42.896;23.912;2022-07-29T15:49:12;9.77;;;6.30;;
6614;SDS011;3343;42.896;23.912;2022-07-29T15:51:39;9.90;;;5.47;;
6614;SDS011;3343;42.896;23.912;2022-07-29T15:54:06;5.47;;;4.97;;
6614;SDS011;3343;42.896;23.912;2022-07-29T15:56:33;7.88;;;5.85;;
6614;SDS011;3343;42.896;23.912;2022-07-29T15:59:00;6.28;;;5.68;;
6614;SDS011;3343;42.896;23.912;2022-07-29T16:01:26;8.40;;;5.93;;
6614;SDS011;3343;42.896;23.912;2022-07-29T16:03:53;6.57;;;5.93;;
6614;SDS011;3343;42.896;23.912;2022-07-29T16:06:22;6.50;;;5.50;;
6614;SDS011;3343;42.896;23.912;2022-07-29T16:08:48;6.55;;;5.82;;
6614;SDS011;3343;42.896;23.912;2022-07-29T16:11:15;6.78;;;5.95;;
6614;SDS011;3343;42.896;23.912;2022-07-29T16:13:42;5.82;;;5.32;;
6614;SDS011;3343;42.896;23.912;2022-07-29T16:16:09;8.13;;;5.93;;
6614;SDS011;3343;42.896;23.912;2022-07-29T16:18:36;7.65;;;6.38;;
6614;SDS011;3343;42.896;23.912;2022-07-29T16:21:03;8.38;;;5.70;;
6614;SDS011;3343;42.896;23.912;2022-07-29T16:23:31;8.60;;;5.82;;
6614;SDS011;3343;42.896;23.912;2022-07-29T16:25:58;6.13;;;5.53;;
6614;SDS011;3343;42.896;23.912;2022-07-29T16:28:25;7.22;;;5.75;;
6614;SDS011;3343;42.896;23.912;2022-07-29T16:30:52;7.65;;;6.45;;
6614;SDS011;3343;42.896;23.912;2022-07-29T16:33:18;9.90;;;6.90;;
6614;SDS011;3343;42.896;23.912;2022-07-29T16:35:45;6.53;;;5.85;;
6614;SDS011;3343;42.896;23.912;2022-07-29T16:38:12;11.30;;;6.85;;
6614;SDS011;3343;42.896;23.912;2022-07-29T16:40:40;11.98;;;6.43;;
6614;SDS011;3343;42.896;23.912;2022-07-29T16:43:07;6.93;;;6.28;;
6614;SDS011;3343;42.896;23.912;2022-07-29T16:45:35;11.23;;;7.10;;
6614;SDS011;3343;42.896;23.912;2022-07-29T16:48:02;13.38;;;7.18;;
6614;SDS011;3343;42.896;23.912;2022-07-29T16:50:29;9.93;;;6.53;;
6614;SDS011;3343;42.896;23.912;2022-07-29T16:52:57;12.63;;;6.82;;
6614;SDS011;3343;42.896;23.912;2022-07-29T16:55:24;8.50;;;6.93;;
6614;SDS011;3343;42.896;23.912;2022-07-29T16:57:52;10.60;;;6.95;;
6614;SDS011;3343;42.896;23.912;2022-07-29T17:00:19;16.33;;;8.88;;
6614;SDS011;3343;42.896;23.912;2022-07-29T17:02:47;13.90;;;7.88;;
6614;SDS011;3343;42.896;23.912;2022-07-29T17:05:14;12.43;;;7.40;;
6614;SDS011;3343;42.896;23.912;2022-07-29T17:07:41;17.98;;;6.75;;
6614;SDS011;3343;42.896;23.912;2022-07-29T17:10:08;25.85;;;13.50;;
6614;SDS011;3343;42.896;23.912;2022-07-29T17:12:37;19.65;;;10.13;;
6614;SDS011;3343;42.896;23.912;2022-07-29T17:15:08;7.93;;;6.93;;
6614;SDS011;3343;42.896;23.912;2022-07-29T17:17:37;11.30;;;6.50;;
6614;SDS011;3343;42.896;23.912;2022-07-29T17:20:05;9.77;;;7.60;;
6614;SDS011;3343;42.896;23.912;2022-07-29T17:22:33;11.57;;;6.72;;
6614;SDS011;3343;42.896;23.912;2022-07-29T17:25:00;7.82;;;7.03;;
6614;SDS011;3343;42.896;23.912;2022-07-29T17:27:26;7.47;;;6.78;;
6614;SDS011;3343;42.896;23.912;2022-07-29T17:29:53;11.13;;;7.07;;
6614;SDS011;3343;42.896;23.912;2022-07-29T17:32:21;12.55;;;7.72;;
6614;SDS011;3343;42.896;23.912;2022-07-29T17:34:48;9.15;;;7.38;;